Wanakena, New York
Current Conditions -  °F | °C
As of 12:51 AM on Sunday 23 Nov 2014 (Local Time) from KSLK Reporting Station
Moderate Rain Moderate Rain  
Wind Chill: 30°   Ceiling: 400
Heat Index: 38°   Visibility: 4mi
Dew Point: 36°   Wind: 13mph
Humidity: 93%   Direction: 220°SW
Pressure: 29.9"   Gusts: NA
Location:  44.13°N, 74.92°W
Report Text: KSLK 230551Z AUTO 22011KT 4SM RA BR OVC004 03/02 A2990 RMK AO2 RAB14UPB15E27 SLP140 P0005 60005 T00330022 10033 20011 50003
Loading
Personal Weather Stations






























Interactive Weather Map New forecast layout! Learn more

10-Day Weather Forecast

Advertisements
Track Severe Weather on mobile